Time;durP1;ratioP1;P1;durP2;ratioP2;P2;SDS_P1;SDS_P2;PMS_P1;PMS_P2;Temp;Humidity;BMP_temperature;BMP_pressure;BME280_temperature;BME280_humidity;BME280_pressure;Samples;Min_cycle;Max_cycle;Signal;HPM_P1;HPM_P2
2021/12/14 00:00:21;;;;;;;14.15;9.57;;;;;;;7.36;95.75;102692.44;5074425;28;20028;-82
2021/12/14 00:02:49;;;;;;;15.18;9.75;;;;;;;7.36;95.79;102689.84;5074615;28;20085;-83
2021/12/14 00:05:16;;;;;;;13.52;9.50;;;;;;;7.35;95.91;102690.75;5074389;28;20021;-82
2021/12/14 00:07:42;;;;;;;12.52;10.18;;;;;;;7.35;96.21;102685.59;5074340;28;20032;-82
2021/12/14 00:10:27;;;;;;;13.15;9.75;;;;;;;7.36;96.18;102684.72;5074165;28;20029;-81
2021/12/14 00:12:59;;;;;;;13.68;9.82;;;;;;;7.30;96.02;102672.00;5074157;28;20040;-80
2021/12/14 00:15:25;;;;;;;13.90;10.15;;;;;;;7.26;95.99;102667.78;5074209;28;20035;-83
2021/12/14 00:17:57;;;;;;;15.75;10.38;;;;;;;7.31;96.23;102683.97;5074194;28;20040;-79
2021/12/14 00:20:29;;;;;;;12.63;8.80;;;;;;;7.32;96.19;102690.81;5074104;28;20020;-83
2021/12/14 00:25:26;;;;;;;13.02;9.25;;;;;;;7.26;96.23;102688.34;5074333;28;20037;-81
2021/12/14 00:27:52;;;;;;;13.65;10.10;;;;;;;7.30;96.35;102694.28;5073586;28;20051;-82
2021/12/14 00:30:18;;;;;;;13.07;9.63;;;;;;;7.30;96.62;102691.72;5073756;28;20032;-80
2021/12/14 00:32:43;;;;;;;12.40;8.85;;;;;;;7.31;96.35;102696.00;5073754;28;20028;-82
2021/12/14 00:35:12;;;;;;;16.25;10.02;;;;;;;7.31;96.47;102696.00;5073780;28;20016;-80
2021/12/14 00:37:43;;;;;;;13.75;9.80;;;;;;;7.30;96.57;102696.88;5055787;28;20111;-77
2021/12/14 00:40:23;;;;;;;16.00;10.05;;;;;;;7.30;96.62;102705.41;5073781;28;20026;-81
2021/12/14 00:42:49;;;;;;;14.07;8.95;;;;;;;7.19;96.64;102703.06;5072796;28;20058;-81
2021/12/14 00:45:17;;;;;;;13.27;9.65;;;;;;;7.27;96.51;102720.88;5073582;28;20066;-81
2021/12/14 00:47:43;;;;;;;14.95;9.93;;;;;;;7.11;96.94;102693.78;5055631;28;20384;-79
2021/12/14 00:50:09;;;;;;;13.80;9.73;;;;;;;7.29;96.95;102729.44;5073520;28;20115;-83
2021/12/14 00:52:35;;;;;;;14.48;9.85;;;;;;;7.30;97.29;102733.69;5073557;28;20166;-78
2021/12/14 00:55:04;;;;;;;14.48;10.30;;;;;;;7.14;97.05;102711.72;5073356;28;20051;-82
2021/12/14 00:57:31;;;;;;;18.88;10.68;;;;;;;7.29;97.46;102731.16;5073043;28;20021;-79
2021/12/14 00:59:56;;;;;;;13.90;10.27;;;;;;;7.28;97.21;102737.16;5073515;28;20472;-82
2021/12/14 01:02:24;;;;;;;14.35;10.45;;;;;;;7.27;97.33;102736.28;5073514;28;20030;-79
2021/12/14 01:04:59;;;;;;;16.00;9.93;;;;;;;7.26;97.67;102729.47;5073257;28;20112;-80
2021/12/14 01:07:28;;;;;;;14.77;10.35;;;;;;;7.25;97.41;102720.06;5073295;28;20024;-82
2021/12/14 01:09:57;;;;;;;15.23;10.68;;;;;;;7.26;97.60;102718.34;5073143;28;20025;-78
2021/12/14 01:12:41;;;;;;;15.20;10.93;;;;;;;7.11;97.60;102692.06;5072745;28;20024;-80
2021/12/14 01:15:32;;;;;;;14.57;10.70;;;;;;;7.25;97.76;102719.22;5072958;28;20119;-81
2021/12/14 01:20:44;;;;;;;15.82;11.75;;;;;;;7.23;97.59;102711.53;5073043;28;20380;-82
2021/12/14 01:23:27;;;;;;;14.30;11.30;;;;;;;7.22;97.71;102725.28;5072967;28;20103;-83
2021/12/14 01:25:54;;;;;;;15.45;11.00;;;;;;;7.23;97.87;102713.25;5072957;28;20025;-80
2021/12/14 01:28:25;;;;;;;16.77;11.25;;;;;;;7.22;98.07;102706.44;5072640;28;20034;-77
2021/12/14 01:31:28;;;;;;;15.80;11.45;;;;;;;7.21;97.80;102695.31;5072770;28;20085;-81
2021/12/14 01:34:04;;;;;;;15.75;10.80;;;;;;;7.06;97.81;102683.59;4991522;28;20045;-75
2021/12/14 01:36:44;;;;;;;15.77;10.95;;;;;;;6.88;97.77;102647.97;4991547;28;20034;-77
2021/12/14 01:42:05;;;;;;;17.30;12.05;;;;;;;7.15;98.00;102696.25;4991374;28;20104;-80
2021/12/14 01:44:36;;;;;;;16.35;11.05;;;;;;;7.10;97.95;102692.09;4991267;28;20038;-81
2021/12/14 01:47:12;;;;;;;17.38;11.05;;;;;;;7.02;98.08;102675.97;4991431;28;20530;-80
2021/12/14 01:49:38;;;;;;;16.70;11.02;;;;;;;7.13;98.22;102689.47;4991270;28;20073;-79
2021/12/14 01:52:09;;;;;;;16.77;11.70;;;;;;;7.03;98.30;102670.81;4991299;28;20065;-76
2021/12/14 01:54:38;;;;;;;16.65;11.02;;;;;;;7.07;98.13;102677.56;4991119;28;20390;-80
2021/12/14 01:57:08;;;;;;;14.88;11.25;;;;;;;6.93;98.06;102640.19;4991082;28;20069;-77
2021/12/14 01:59:38;;;;;;;16.77;11.35;;;;;;;7.15;98.19;102680.00;4991170;28;20113;-77
2021/12/14 02:02:32;;;;;;;14.20;10.55;;;;;;;7.14;98.22;102671.44;4991208;28;20034;-79
2021/12/14 02:04:56;;;;;;;16.17;11.50;;;;;;;7.02;98.18;102650.28;4991094;28;20038;-80
2021/12/14 02:07:26;;;;;;;14.50;10.82;;;;;;;6.94;98.01;102629.03;4990999;28;20030;-78
2021/12/14 02:09:56;;;;;;;14.88;10.95;;;;;;;7.11;97.92;102656.09;5022164;28;20115;-75
2021/12/14 02:12:26;;;;;;;16.45;11.27;;;;;;;7.00;97.96;102634.06;5072137;28;20024;-77
2021/12/14 02:14:53;;;;;;;17.02;10.82;;;;;;;7.11;98.01;102657.81;5072305;28;20056;-77
2021/12/14 02:17:21;;;;;;;13.68;10.15;;;;;;;7.09;98.44;102670.72;5072362;28;20052;-77
2021/12/14 02:19:48;;;;;;;15.75;10.18;;;;;;;6.96;98.37;102651.25;5072592;28;20044;-76
2021/12/14 02:22:14;;;;;;;15.27;10.35;;;;;;;7.09;98.10;102680.13;5072338;28;20107;-77
2021/12/14 02:24:43;;;;;;;14.57;9.65;;;;;;;6.68;97.82;102598.69;5072423;28;20025;-79
2021/12/14 02:27:08;;;;;;;14.10;9.80;;;;;;;7.10;97.79;102667.25;5072377;28;20035;-77
2021/12/14 02:29:38;;;;;;;13.73;8.68;;;;;;;7.08;97.83;102681.88;5071962;28;20028;-81
2021/12/14 02:32:14;;;;;;;16.33;9.85;;;;;;;6.98;97.95;102664.94;5072327;28;20024;-79
2021/12/14 02:35:11;;;;;;;14.07;8.60;;;;;;;6.74;97.63;102619.13;5072367;28;20020;-77
2021/12/14 02:37:58;;;;;;;14.10;9.05;;;;;;;6.95;97.93;102667.53;4971476;28;20514;-75
2021/12/14 02:43:19;;;;;;;13.88;8.40;;;;;;;7.05;97.30;102686.19;4971257;28;20457;-80
2021/12/14 02:45:45;;;;;;;12.82;7.95;;;;;;;7.02;97.33;102687.09;4971488;28;20052;-76
2021/12/14 02:48:10;;;;;;;12.20;7.47;;;;;;;7.03;97.15;102680.25;4971454;28;20514;-79
2021/12/14 02:50:37;;;;;;;11.07;7.40;;;;;;;7.01;97.17;102672.56;4971135;28;20038;-77
2021/12/14 02:53:03;;;;;;;13.25;7.60;;;;;;;6.78;96.90;102631.88;4971336;28;20038;-81
2021/12/14 02:55:28;;;;;;;11.57;7.57;;;;;;;6.98;97.10;102659.78;4971318;28;20392;-77
2021/12/14 02:57:57;;;;;;;11.82;7.22;;;;;;;6.95;97.20;102646.13;4971643;28;20410;-78
2021/12/14 03:00:35;;;;;;;10.65;7.28;;;;;;;6.90;97.04;102659.09;4971324;28;20051;-79
2021/12/14 03:03:03;;;;;;;12.18;7.03;;;;;;;6.94;96.91;102660.72;4971256;28;20372;-78
2021/12/14 03:05:34;;;;;;;13.80;7.78;;;;;;;6.93;96.97;102660.75;4971278;28;20031;-78
2021/12/14 03:08:04;;;;;;;12.23;6.63;;;;;;;6.77;96.87;102625.06;4974495;28;20166;-78
2021/12/14 03:10:39;;;;;;;12.80;7.45;;;;;;;6.77;96.71;102611.38;4974852;28;20282;-80
2021/12/14 03:13:08;;;;;;;12.38;7.03;;;;;;;6.78;96.83;102615.63;4988343;28;20040;-81
2021/12/14 03:15:48;;;;;;;11.63;6.40;;;;;;;6.90;96.72;102618.84;5075400;28;20035;-82
2021/12/14 03:18:17;;;;;;;12.15;7.13;;;;;;;6.90;96.71;102618.84;5075141;28;20028;-77
2021/12/14 03:21:05;;;;;;;12.10;7.20;;;;;;;6.89;96.87;102630.00;5075455;28;20024;-80
2021/12/14 03:23:41;;;;;;;12.70;7.38;;;;;;;6.86;96.52;102635.16;5075422;28;20035;-80
2021/12/14 03:26:10;;;;;;;12.38;6.93;;;;;;;6.84;96.54;102638.63;5075285;28;20056;-83
2021/12/14 03:28:38;;;;;;;13.38;6.72;;;;;;;6.83;96.68;102634.38;5074833;28;20028;-79
2021/12/14 03:31:30;;;;;;;10.85;6.45;;;;;;;6.55;96.52;102583.53;5075086;28;20040;-79
2021/12/14 03:34:11;;;;;;;13.30;6.22;;;;;;;6.77;96.46;102627.63;5075176;28;20028;-79
2021/12/14 03:36:44;;;;;;;11.97;6.33;;;;;;;6.59;96.29;102592.88;5075090;28;20040;-81
2021/12/14 03:39:37;;;;;;;12.35;7.00;;;;;;;6.66;96.47;102590.19;5074934;28;20232;-78
2021/12/14 03:42:08;;;;;;;11.68;7.10;;;;;;;6.69;96.63;102614.09;5063889;28;20043;-80
2021/12/14 03:44:40;;;;;;;10.77;6.00;;;;;;;6.78;96.59;102631.03;5074826;28;20020;-76
2021/12/14 03:47:17;;;;;;;11.95;6.10;;;;;;;6.75;96.63;102637.06;5074835;28;20024;-80
2021/12/14 03:49:49;;;;;;;12.32;6.70;;;;;;;6.78;96.52;102649.00;5074676;28;20029;-78
2021/12/14 03:52:18;;;;;;;10.52;5.82;;;;;;;6.77;96.51;102667.84;5074796;28;20354;-80
2021/12/14 03:54:45;;;;;;;15.07;7.93;;;;;;;6.78;96.49;102674.69;5074657;28;20019;-83
2021/12/14 03:57:10;;;;;;;10.90;6.53;;;;;;;6.77;96.67;102670.44;5074703;28;20477;-82
2021/12/14 03:59:36;;;;;;;12.68;6.80;;;;;;;6.76;96.79;102674.72;5074389;28;20052;-81
2021/12/14 04:02:06;;;;;;;12.43;6.80;;;;;;;6.78;96.91;102677.25;5074311;28;20031;-78
2021/12/14 04:04:41;;;;;;;14.20;7.57;;;;;;;6.72;96.90;102682.50;5074531;28;20037;-81
2021/12/14 04:07:10;;;;;;;14.35;7.65;;;;;;;6.75;96.74;102693.56;5074365;28;20487;-82
2021/12/14 04:09:37;;;;;;;13.75;7.22;;;;;;;6.65;96.93;102676.63;5074436;28;20028;-82
2021/12/14 04:12:05;;;;;;;14.35;7.63;;;;;;;6.57;97.13;102655.38;5074432;28;20090;-82
2021/12/14 04:14:31;;;;;;;12.98;7.82;;;;;;;6.73;96.91;102673.94;5073806;28;20052;-78
2021/12/14 04:16:59;;;;;;;13.00;7.97;;;;;;;6.65;96.97;102665.50;5074012;28;20021;-82
2021/12/14 04:19:29;;;;;;;14.57;8.38;;;;;;;6.72;96.81;102677.38;5073492;28;20029;-82
2021/12/14 04:22:01;;;;;;;13.43;7.93;;;;;;;6.72;97.08;102677.38;5074288;28;20048;-81
2021/12/14 04:24:33;;;;;;;15.82;8.20;;;;;;;6.47;96.94;102625.59;5074292;28;20033;-82
2021/12/14 04:27:03;;;;;;;16.13;8.55;;;;;;;6.65;96.99;102661.22;5074014;28;20016;-83
2021/12/14 04:29:28;;;;;;;14.60;8.45;;;;;;;6.74;97.23;102676.47;5073693;28;20518;-80
2021/12/14 04:31:54;;;;;;;14.75;7.57;;;;;;;6.74;97.07;102673.06;5073906;28;20048;-82
2021/12/14 04:34:20;;;;;;;15.32;8.55;;;;;;;6.75;97.33;102665.31;5074169;28;20067;-82
2021/12/14 04:36:51;;;;;;;14.65;8.35;;;;;;;6.55;97.17;102642.56;5074015;28;20028;-83
2021/12/14 04:53:10;;;;;;;16.02;8.77;;;;;;;6.72;97.51;102652.56;5073780;28;20043;-81
2021/12/14 04:55:40;;;;;;;14.70;9.02;;;;;;;6.63;97.55;102652.72;5073254;28;20033;-78
2021/12/14 04:58:06;;;;;;;15.63;9.18;;;;;;;6.55;97.46;102631.47;5073453;28;20028;-76
2021/12/14 05:00:48;;;;;;;15.73;9.70;;;;;;;6.72;97.63;102659.41;5073402;28;20017;-78
2021/12/14 05:03:19;;;;;;;14.88;8.85;;;;;;;6.55;97.53;102634.88;5073156;28;20036;-77
2021/12/14 05:05:49;;;;;;;17.85;10.15;;;;;;;6.69;97.55;102657.75;5073282;28;20480;-80
2021/12/14 05:10:58;;;;;;;16.40;9.30;;;;;;;6.66;97.67;102654.38;5073168;28;20025;-79
2021/12/14 05:13:30;;;;;;;17.92;9.80;;;;;;;6.52;97.79;102624.66;5072878;28;20052;-77
2021/12/14 05:15:55;;;;;;;19.00;10.00;;;;;;;6.68;97.79;102647.47;5072874;28;20492;-80
2021/12/14 05:18:21;;;;;;;17.52;10.20;;;;;;;6.67;97.88;102641.50;5072961;28;20032;-75
2021/12/14 05:20:48;;;;;;;20.13;10.35;;;;;;;6.67;98.01;102638.94;5073058;28;20029;-79
2021/12/14 05:23:26;;;;;;;17.30;10.55;;;;;;;6.69;97.92;102641.50;5073171;28;20115;-80
2021/12/14 05:25:52;;;;;;;18.15;10.43;;;;;;;6.46;97.89;102604.22;5073097;28;20025;-79
2021/12/14 05:28:19;;;;;;;20.52;11.00;;;;;;;6.64;97.69;102644.13;5072740;28;20028;-78
2021/12/14 05:30:47;;;;;;;19.33;11.45;;;;;;;6.65;97.72;102635.56;5072606;28;20142;-79
2021/12/14 05:33:17;;;;;;;17.77;11.20;;;;;;;6.65;97.85;102629.56;5073252;28;20024;-80
2021/12/14 05:35:45;;;;;;;18.85;11.25;;;;;;;6.66;97.99;102634.69;5073066;28;20031;-81
2021/12/14 05:38:15;;;;;;;20.60;11.73;;;;;;;6.67;98.06;102632.94;5072571;28;20077;-81
2021/12/14 05:41:11;;;;;;;19.27;11.57;;;;;;;6.30;97.90;102579.72;5072588;28;20029;-81
2021/12/14 05:43:29;;;;;;;21.10;11.38;;;;;;;6.68;98.00;102637.22;5072102;28;20033;-82
2021/12/14 05:46:02;;;;;;;20.42;12.10;;;;;;;6.68;97.91;102643.19;5072759;28;20024;-82
2021/12/14 05:48:31;;;;;;;20.67;12.02;;;;;;;6.68;97.91;102650.03;5072730;28;20021;-82
2021/12/14 05:51:07;;;;;;;19.98;11.65;;;;;;;6.67;98.18;102654.34;5072639;28;20024;-81
2021/12/14 05:53:38;;;;;;;20.52;11.90;;;;;;;6.67;98.02;102664.59;5072566;28;20020;-78
2021/12/14 05:56:17;;;;;;;;;;;;;;;6.72;97.70;102657.69;5073040;28;20042;-82
2021/12/14 05:58:44;;;;;;;20.65;11.75;;;;;;;6.69;97.84;102657.75;5072631;28;19935;-80
2021/12/14 06:01:13;;;;;;;23.70;12.95;;;;;;;6.65;97.93;102660.38;5072456;28;20057;-77
2021/12/14 06:03:42;;;;;;;21.13;12.85;;;;;;;6.66;97.75;102656.94;5072557;28;20047;-83
2021/12/14 06:06:21;;;;;;;20.38;13.05;;;;;;;6.59;97.87;102649.34;5072344;28;20048;-79
2021/12/14 06:08:46;;;;;;;22.13;13.20;;;;;;;6.66;97.89;102660.34;5072357;28;20043;-83
2021/12/14 06:11:25;;;;;;;20.52;12.73;;;;;;;6.64;97.83;102662.09;5072496;28;20104;-79
2021/12/14 06:13:51;;;;;;;22.48;15.02;;;;;;;6.58;97.90;102657.91;5072506;28;20048;-83
2021/12/14 06:16:33;;;;;;;22.50;14.20;;;;;;;6.63;97.92;102670.69;5072355;28;20024;-77
2021/12/14 06:19:10;;;;;;;24.88;13.43;;;;;;;6.65;97.99;102679.19;5072513;28;20028;-80
2021/12/14 06:21:36;;;;;;;25.85;13.77;;;;;;;6.42;97.87;102638.53;5072436;28;20020;-81
2021/12/14 06:24:07;;;;;;;22.88;13.75;;;;;;;6.52;97.68;102659.75;5072509;28;20472;-81
2021/12/14 06:26:38;;;;;;;21.60;13.20;;;;;;;6.64;97.88;102685.19;5072312;28;20384;-81
2021/12/14 06:29:07;;;;;;;25.67;13.82;;;;;;;6.64;97.79;102687.78;5072128;28;20031;-82
2021/12/14 06:31:32;;;;;;;24.45;13.63;;;;;;;6.58;97.75;102675.03;5072080;28;20032;-79
2021/12/14 06:34:20;;;;;;;25.23;15.70;;;;;;;6.35;97.74;102629.22;5072348;28;20025;-78
2021/12/14 06:37:27;;;;;;;24.17;15.35;;;;;;;6.64;97.81;102685.19;5072335;28;20487;-78
2021/12/14 06:39:58;;;;;;;26.00;15.07;;;;;;;6.62;97.89;102679.25;5072416;28;20438;-80
2021/12/14 06:42:23;;;;;;;24.75;14.68;;;;;;;6.63;97.98;102677.53;5074974;28;20478;-77
2021/12/14 06:44:49;;;;;;;27.13;15.45;;;;;;;6.53;98.04;102661.44;5075991;28;20028;-76
2021/12/14 06:47:14;;;;;;;26.45;15.02;;;;;;;6.60;97.90;102679.28;5075781;28;20103;-82
2021/12/14 06:49:39;;;;;;;25.70;15.30;;;;;;;6.60;97.99;102689.56;5057268;28;20476;-80
2021/12/14 06:52:06;;;;;;;28.30;15.07;;;;;;;6.50;97.84;102679.47;5075746;28;20035;-82
2021/12/14 06:54:32;;;;;;;28.10;15.25;;;;;;;6.64;98.02;102699.75;5075998;28;20028;-77
2021/12/14 06:57:00;;;;;;;26.73;15.52;;;;;;;6.46;98.13;102673.50;5075784;28;20024;-81
2021/12/14 06:59:25;;;;;;;27.67;15.55;;;;;;;6.48;97.84;102684.59;5075671;28;20021;-79
2021/12/14 07:01:55;;;;;;;26.00;15.50;;;;;;;6.63;98.08;102708.34;5075442;28;20074;-75
2021/12/14 07:04:27;;;;;;;29.08;15.50;;;;;;;6.62;98.07;102704.94;5075578;28;20036;-79
2021/12/14 07:06:55;;;;;;;26.65;14.77;;;;;;;6.63;98.03;102703.19;5075169;28;20521;-82
2021/12/14 07:09:24;;;;;;;29.52;17.25;;;;;;;6.06;97.91;102614.28;5075440;28;20028;-81
2021/12/14 07:12:04;;;;;;;29.95;16.00;;;;;;;6.57;98.11;102702.41;5075583;28;20027;-79
2021/12/14 07:14:36;;;;;;;29.63;16.23;;;;;;;6.55;98.23;102699.03;5058147;28;20044;-80
2021/12/14 07:17:18;;;;;;;29.75;16.75;;;;;;;6.65;98.11;102716.84;5057413;28;20427;-83
2021/12/14 07:19:53;;;;;;;29.35;16.45;;;;;;;6.65;98.06;102727.13;5075284;28;20024;-81
2021/12/14 07:22:30;;;;;;;32.00;16.35;;;;;;;6.64;98.25;102720.28;5075207;28;20056;-77
2021/12/14 07:25:11;;;;;;;30.33;16.38;;;;;;;6.52;98.00;102706.78;5075531;28;20017;-82
2021/12/14 07:27:37;;;;;;;29.65;16.50;;;;;;;6.66;98.00;102731.38;5075127;28;20090;-80
2021/12/14 07:30:32;;;;;;;30.88;16.38;;;;;;;6.53;98.21;102712.78;5074644;28;20035;-75
2021/12/14 07:33:08;;;;;;;30.73;17.30;;;;;;;6.56;98.16;102717.84;5075009;28;20056;-80
2021/12/14 07:35:40;;;;;;;29.13;17.00;;;;;;;6.63;98.15;102728.88;5075074;28;20020;-81
2021/12/14 07:38:27;;;;;;;30.15;17.38;;;;;;;6.66;98.21;102741.66;5075151;28;20059;-82
2021/12/14 07:41:07;;;;;;;33.08;18.73;;;;;;;6.51;98.04;102725.63;5075190;28;20430;-81
2021/12/14 07:43:38;;;;;;;33.40;18.02;;;;;;;6.57;98.05;102735.78;5074987;28;20055;-82
2021/12/14 07:46:25;;;;;;;30.10;18.10;;;;;;;6.70;98.09;102751.88;5074841;28;20479;-81
2021/12/14 07:48:57;;;;;;;32.45;17.35;;;;;;;6.68;98.21;102755.31;5074496;28;20025;-79
2021/12/14 07:51:24;;;;;;;36.70;19.20;;;;;;;6.45;98.03;102715.44;5073357;28;20994;-81
2021/12/14 07:53:54;;;;;;;35.80;18.50;;;;;;;6.56;98.09;102741.78;5074605;28;20016;-82
2021/12/14 07:56:41;;;;;;;34.13;18.25;;;;;;;6.71;98.15;102763.81;5074635;28;20070;-79
2021/12/14 07:59:27;;;;;;;33.40;18.80;;;;;;;6.72;98.02;102764.66;5074492;28;20032;-82
2021/12/14 08:02:38;;;;;;;37.17;19.10;;;;;;;6.58;97.98;102737.47;5074683;28;20031;-81
2021/12/14 08:05:19;;;;;;;37.42;18.83;;;;;;;6.53;98.02;102734.16;4973577;28;20031;-77
2021/12/14 08:08:10;;;;;;;37.65;20.05;;;;;;;6.75;98.05;102772.31;4973559;28;20038;-78
2021/12/14 08:10:46;;;;;;;34.35;17.80;;;;;;;6.74;97.96;102780.91;4957453;28;20042;-82
2021/12/14 08:13:15;;;;;;;34.55;19.52;;;;;;;6.70;97.77;102769.84;4973209;28;20060;-84
2021/12/14 08:15:44;;;;;;;35.50;18.85;;;;;;;6.78;97.81;102774.81;4973459;28;20054;-83
2021/12/14 08:18:24;;;;;;;34.63;18.92;;;;;;;6.80;97.98;102773.09;4973274;28;20027;-82
2021/12/14 08:21:06;;;;;;;37.45;18.38;;;;;;;6.83;97.86;102779.03;4973290;28;20031;-84
2021/12/14 08:23:38;;;;;;;35.42;19.10;;;;;;;6.79;97.59;102769.69;4973534;28;20122;-82
2021/12/14 08:26:06;;;;;;;35.67;19.08;;;;;;;6.85;97.56;102779.84;4973365;28;20026;-82
2021/12/14 08:28:33;;;;;;;36.15;20.85;;;;;;;6.86;97.37;102770.41;4973447;28;20070;-81
2021/12/14 08:31:02;;;;;;;35.38;19.77;;;;;;;6.85;97.50;102773.88;4973249;28;20023;-82
2021/12/14 08:33:31;;;;;;;35.47;19.33;;;;;;;6.88;97.55;102778.94;4972984;28;20026;-82
2021/12/14 08:36:08;;;;;;;34.13;19.20;;;;;;;6.76;97.23;102764.59;5034076;28;20048;-80
2021/12/14 08:38:35;;;;;;;36.38;20.67;;;;;;;6.91;97.32;102784.03;5073728;28;20078;-81
2021/12/14 08:41:18;;;;;;;37.90;19.13;;;;;;;6.90;97.25;102783.19;5073753;28;20146;-80
2021/12/14 08:43:50;;;;;;;40.30;19.83;;;;;;;6.72;97.38;102746.69;5073735;28;20491;-77
2021/12/14 08:46:24;;;;;;;41.20;22.08;;;;;;;6.98;97.34;102777.94;5073688;28;20479;-80
2021/12/14 08:48:54;;;;;;;42.72;21.20;;;;;;;6.99;97.20;102776.22;5073300;28;20388;-82
2021/12/14 08:51:25;;;;;;;39.47;20.85;;;;;;;6.92;96.98;102765.19;5073678;28;20434;-85
2021/12/14 08:54:04;;;;;;;37.75;20.50;;;;;;;6.91;97.06;102766.06;5073353;28;20131;-79
2021/12/14 08:56:34;;;;;;;41.63;22.23;;;;;;;7.04;96.76;102790.66;5073691;28;20149;-85
2021/12/14 08:58:59;;;;;;;40.95;22.00;;;;;;;6.95;96.87;102762.56;5073318;28;20025;-79
2021/12/14 09:01:28;;;;;;;36.95;21.35;;;;;;;6.95;96.86;102752.28;5073332;28;20491;-82
2021/12/14 09:04:13;;;;;;;41.63;22.58;;;;;;;7.18;96.47;102782.75;5072462;28;20017;-82
2021/12/14 09:06:42;;;;;;;38.42;21.42;;;;;;;7.24;96.45;102784.34;5073057;28;20028;-79
2021/12/14 09:09:13;;;;;;;38.65;21.55;;;;;;;7.28;96.18;102794.56;5072978;28;20084;-82
2021/12/14 09:11:41;;;;;;;39.35;21.58;;;;;;;7.37;96.20;102796.09;5072969;28;20032;-83
2021/12/14 09:14:09;;;;;;;43.55;21.20;;;;;;;7.40;95.45;102789.19;5072897;28;20208;-82
2021/12/14 09:16:36;;;;;;;44.05;23.48;;;;;;;7.44;95.49;102790.81;5073161;28;20039;-83
2021/12/14 09:19:09;;;;;;;37.33;21.45;;;;;;;7.52;95.34;102793.25;5072905;28;20417;-83
2021/12/14 09:21:39;;;;;;;39.42;21.98;;;;;;;7.57;94.97;102799.16;5072875;28;20084;-81
2021/12/14 09:24:09;;;;;;;119.93;30.33;;;;;;;7.61;94.98;102800.78;5072980;28;20023;-81
2021/12/14 09:26:38;;;;;;;154.82;36.35;;;;;;;7.63;94.70;102800.75;5072894;28;20021;-80
2021/12/14 09:29:08;;;;;;;39.92;22.10;;;;;;;7.60;94.75;102801.66;5072773;28;20090;-86
2021/12/14 09:31:39;;;;;;;40.70;22.77;;;;;;;7.58;94.69;102794.88;5072988;28;20056;-82
2021/12/14 09:34:06;;;;;;;38.35;21.42;;;;;;;7.58;94.66;102800.84;5054812;28;20036;-75
2021/12/14 09:36:32;;;;;;;44.60;24.00;;;;;;;7.54;94.45;102800.91;5072883;28;20067;-79
2021/12/14 09:39:09;;;;;;;42.92;21.90;;;;;;;7.50;94.78;102797.56;5054663;28;20044;-82
2021/12/14 09:41:35;;;;;;;45.15;23.60;;;;;;;7.45;95.04;102795.06;5073011;28;20033;-81
2021/12/14 09:44:04;;;;;;;42.40;23.17;;;;;;;7.36;95.13;102787.53;5072856;28;20033;-80
2021/12/14 09:46:30;;;;;;;42.33;24.58;;;;;;;7.35;95.77;102787.56;5072611;28;20024;-84
2021/12/14 09:49:01;;;;;;;37.95;22.73;;;;;;;7.34;96.08;102786.72;5072349;28;20029;-80
2021/12/14 09:51:37;;;;;;;41.33;23.98;;;;;;;7.37;96.15;102791.78;5072566;28;20024;-81
2021/12/14 09:54:06;;;;;;;38.58;22.30;;;;;;;7.28;95.98;102752.59;5072783;28;20476;-80
2021/12/14 09:56:36;;;;;;;40.58;23.08;;;;;;;7.51;95.81;102776.13;5072728;28;20099;-77
2021/12/14 09:59:03;;;;;;;43.97;23.17;;;;;;;7.61;95.91;102779.38;5072557;28;20025;-79
2021/12/14 10:01:50;;;;;;;39.50;22.67;;;;;;;7.69;95.37;102791.22;5072373;28;20392;-83
2021/12/14 10:04:21;;;;;;;43.33;22.85;;;;;;;7.64;95.51;102758.72;5072057;28;20050;-77
2021/12/14 10:06:49;;;;;;;38.47;22.60;;;;;;;7.76;95.00;102784.19;5072455;28;20472;-76
2021/12/14 10:09:19;;;;;;;49.38;24.02;;;;;;;7.68;94.96;102765.53;5072433;28;20024;-78
2021/12/14 10:14:34;;;;;;;38.85;23.60;;;;;;;7.57;94.47;102724.59;5072145;28;20436;-86
2021/12/14 10:17:01;;;;;;;40.67;23.45;;;;;;;8.02;94.21;102791.38;5074568;28;20021;-84
2021/12/14 10:19:30;;;;;;;38.28;22.67;;;;;;;8.08;93.86;102787.84;5075878;28;20107;-77
2021/12/14 10:21:59;;;;;;;45.33;24.35;;;;;;;8.13;93.78;102792.00;5076240;28;20062;-76
2021/12/14 10:24:26;;;;;;;41.17;25.00;;;;;;;7.99;93.36;102766.59;5076077;28;20021;-82
2021/12/14 10:26:59;;;;;;;39.30;22.73;;;;;;;7.93;93.61;102747.84;5076186;28;20032;-77
2021/12/14 10:29:29;;;;;;;38.30;22.92;;;;;;;8.10;93.30;102768.94;5075618;28;20064;-77
2021/12/14 10:32:02;;;;;;;40.83;24.15;;;;;;;8.23;93.32;102790.94;5057143;28;20443;-78
2021/12/14 10:34:29;;;;;;;41.13;24.20;;;;;;;7.99;93.53;102750.31;5075741;28;20036;-84
2021/12/14 10:37:08;;;;;;;38.08;22.63;;;;;;;8.32;93.53;102803.59;5075650;28;20024;-83
2021/12/14 10:39:40;;;;;;;41.08;23.95;;;;;;;8.20;93.20;102774.72;5075967;28;20020;-85
2021/12/14 10:45:00;;;;;;;38.88;23.67;;;;;;;8.29;92.90;102789.97;5076055;28;20392;-76
2021/12/14 10:47:30;;;;;;;41.60;23.65;;;;;;;8.37;93.15;102785.53;5075322;28;20387;-78
2021/12/14 10:49:58;;;;;;;45.17;25.40;;;;;;;8.39;93.00;102786.34;5075390;28;20032;-79
2021/12/14 10:52:26;;;;;;;60.47;27.55;;;;;;;8.38;92.60;102788.94;5075733;28;20089;-82
2021/12/14 10:55:00;;;;;;;40.63;24.23;;;;;;;8.36;92.68;102786.41;5075510;28;20024;-79
2021/12/14 10:57:30;;;;;;;41.38;22.80;;;;;;;8.34;92.72;102791.56;5075365;28;20029;-75
2021/12/14 10:59:57;;;;;;;43.28;23.67;;;;;;;8.36;92.94;102783.84;5075173;28;20109;-75
2021/12/14 11:02:25;;;;;;;40.15;23.17;;;;;;;8.37;92.85;102780.38;5075204;28;20051;-79
2021/12/14 11:04:56;;;;;;;38.85;22.48;;;;;;;8.28;93.11;102755.66;5075182;28;20423;-76
2021/12/14 11:07:29;;;;;;;40.88;22.70;;;;;;;8.47;92.85;102781.03;5075630;28;20024;-81
2021/12/14 11:10:14;;;;;;;40.72;23.50;;;;;;;8.55;92.96;102786.81;5075446;28;20032;-76
2021/12/14 11:12:44;;;;;;;42.55;24.77;;;;;;;8.57;92.53;102780.78;5075233;28;20098;-78
2021/12/14 11:15:22;;;;;;;42.10;24.45;;;;;;;8.51;92.78;102768.03;5075272;28;20024;-81
2021/12/14 11:18:09;;;;;;;42.05;24.45;;;;;;;8.64;92.15;102776.28;5075415;28;20039;-78
2021/12/14 11:20:37;;;;;;;41.35;24.92;;;;;;;8.67;91.73;102775.41;5075246;28;20480;-76
2021/12/14 11:23:12;;;;;;;38.92;23.13;;;;;;;8.67;91.86;102765.09;5075322;28;20545;-76
2021/12/14 11:25:53;;;;;;;39.58;23.73;;;;;;;8.60;92.45;102743.78;5075173;28;20025;-81
2021/12/14 11:28:33;;;;;;;42.45;25.00;;;;;;;8.73;91.45;102759.78;5074430;28;20074;-81
2021/12/14 11:31:08;;;;;;;42.50;24.85;;;;;;;8.85;91.69;102757.78;5075177;28;20025;-80
2021/12/14 11:33:47;;;;;;;41.45;24.58;;;;;;;8.74;91.43;102733.97;5075126;28;20017;-79
2021/12/14 11:36:15;;;;;;;42.10;24.63;;;;;;;8.92;91.29;102761.03;5075037;28;20380;-77
2021/12/14 11:38:57;;;;;;;40.95;24.10;;;;;;;8.70;90.88;102716.94;5075026;28;20028;-76
2021/12/14 11:41:25;;;;;;;;;;;;;;;9.04;91.29;102758.13;5056065;28;20157;-75
2021/12/14 11:43:55;;;;;;;44.30;24.80;;;;;;;8.94;90.70;102756.66;5074607;28;19915;-79
2021/12/14 11:46:22;;;;;;;42.63;25.30;;;;;;;8.80;90.57;102725.28;5074782;28;20024;-77
2021/12/14 11:48:47;;;;;;;45.33;26.90;;;;;;;8.98;91.00;102750.56;5056550;28;20067;-78
2021/12/14 11:51:13;;;;;;;47.65;25.73;;;;;;;9.02;90.86;102761.63;5074754;28;20190;-80
2021/12/14 11:53:47;;;;;;;49.38;29.10;;;;;;;9.07;90.96;102763.22;5074887;28;20028;-76
2021/12/14 11:56:18;;;;;;;47.40;27.55;;;;;;;9.09;90.71;102756.28;5074380;28;20480;-78
2021/12/14 11:58:50;;;;;;;47.28;27.83;;;;;;;9.05;90.60;102752.13;5074562;28;20028;-80
2021/12/14 12:01:31;;;;;;;47.92;28.52;;;;;;;9.08;90.86;102761.50;5074550;28;20033;-77
2021/12/14 12:04:16;;;;;;;46.30;27.30;;;;;;;8.79;90.87;102721.00;5074583;28;20033;-76
2021/12/14 12:09:30;;;;;;;51.33;29.27;;;;;;;8.98;91.11;102762.59;5074250;28;20040;-81
2021/12/14 12:12:05;;;;;;;49.70;28.58;;;;;;;8.97;91.12;102758.34;5074299;28;20380;-72
2021/12/14 12:14:33;;;;;;;47.85;28.38;;;;;;;8.91;91.43;102759.34;5074232;28;20129;-85
2021/12/14 12:17:24;;;;;;;53.45;29.60;;;;;;;8.94;91.78;102766.97;5074362;28;20028;-84